Time;durP1;ratioP1;P1;durP2;ratioP2;P2;SDS_P1;SDS_P2;PMS_P1;PMS_P2;Temp;Humidity;BMP_temperature;BMP_pressure;BME280_temperature;BME280_humidity;BME280_pressure;Samples;Min_cycle;Max_cycle;Signal;HPM_P1;HPM_P2
2021/10/31 00:01:15;;;;;;;10.85;5.72;;;10.60;99.90;;;;;;5034791;28;20018;-75
2021/10/31 00:03:41;;;;;;;10.98;6.05;;;10.60;99.90;;;;;;5033718;28;20048;-75
2021/10/31 00:06:07;;;;;;;10.18;6.50;;;10.60;99.90;;;;;;5034515;28;20113;-74
2021/10/31 00:08:33;;;;;;;10.95;6.07;;;10.60;99.90;;;;;;5034588;28;20405;-74
2021/10/31 00:10:59;;;;;;;13.00;6.50;;;10.50;99.90;;;;;;5033718;28;20033;-75
2021/10/31 00:13:25;;;;;;;9.13;6.57;;;10.50;99.90;;;;;;5034419;28;20029;-75
2021/10/31 00:15:51;;;;;;;12.45;6.38;;;10.50;99.90;;;;;;5033978;28;20504;-75
2021/10/31 00:18:16;;;;;;;13.93;6.82;;;10.50;99.90;;;;;;5033562;28;20493;-75
2021/10/31 00:20:42;;;;;;;12.95;7.22;;;10.50;99.90;;;;;;5033788;28;20064;-75
2021/10/31 00:23:08;;;;;;;12.18;6.72;;;10.50;99.90;;;;;;5033976;28;20421;-74
2021/10/31 00:25:34;;;;;;;20.52;7.82;;;10.50;99.90;;;;;;5033962;28;20414;-74
2021/10/31 00:27:59;;;;;;;12.30;7.28;;;10.50;99.90;;;;;;5033723;28;20080;-74
2021/10/31 00:30:25;;;;;;;18.40;7.53;;;10.40;99.90;;;;;;5033577;28;20484;-74
2021/10/31 00:32:51;;;;;;;20.10;8.05;;;10.40;99.90;;;;;;5033673;28;20079;-74
2021/10/31 00:35:17;;;;;;;15.73;8.07;;;10.50;99.90;;;;;;5033568;28;20053;-75
2021/10/31 00:37:42;;;;;;;15.10;6.75;;;10.80;99.90;;;;;;5032842;28;20029;-75
2021/10/31 00:40:11;;;;;;;19.27;8.70;;;10.40;99.90;;;;;;5033538;28;20045;-74
2021/10/31 00:42:37;;;;;;;13.38;7.38;;;10.40;99.90;;;;;;5034707;28;20025;-73
2021/10/31 00:45:04;;;;;;;11.82;6.78;;;10.40;99.90;;;;;;5033167;28;20022;-76
2021/10/31 00:47:30;;;;;;;8.95;6.95;;;10.40;99.90;;;;;;5033866;28;20091;-75
2021/10/31 00:49:55;;;;;;;15.77;7.32;;;10.40;99.90;;;;;;5033392;28;20459;-75
2021/10/31 00:52:21;;;;;;;14.90;7.32;;;10.30;99.90;;;;;;5032529;28;20525;-76
2021/10/31 00:54:48;;;;;;;12.27;8.05;;;10.30;99.90;;;;;;5033660;28;20053;-75
2021/10/31 00:57:14;;;;;;;13.23;6.95;;;10.30;99.90;;;;;;5033214;28;20128;-75
2021/10/31 00:59:40;;;;;;;15.35;7.18;;;10.30;99.90;;;;;;5032833;28;20576;-75
2021/10/31 01:02:11;;;;;;;13.68;6.75;;;10.30;99.90;;;;;;5033755;28;20108;-75
2021/10/31 01:04:43;;;;;;;13.73;7.40;;;10.20;99.90;;;;;;5033575;28;20485;-75
2021/10/31 01:07:14;;;;;;;16.23;7.75;;;10.20;99.90;;;;;;5032943;28;20037;-75
2021/10/31 01:10:01;;;;;;;13.35;6.18;;;10.10;99.90;;;;;;5019262;28;20029;-75
2021/10/31 01:12:44;;;;;;;13.45;6.25;;;10.10;99.90;;;;;;5032267;28;20104;-74
2021/10/31 01:15:30;;;;;;;10.63;6.22;;;10.00;99.90;;;;;;5034353;28;20472;-75
2021/10/31 01:18:14;;;;;;;16.77;7.13;;;9.90;99.90;;;;;;5033319;28;20026;-75
2021/10/31 01:20:51;;;;;;;12.27;8.27;;;9.90;99.90;;;;;;5032086;28;20484;-75
2021/10/31 01:23:33;;;;;;;14.80;8.50;;;9.80;99.90;;;;;;5018870;28;20045;-75
2021/10/31 01:26:14;;;;;;;21.30;9.23;;;9.80;99.90;;;;;;5032210;28;20393;-76
2021/10/31 01:29:12;;;;;;;18.23;9.38;;;9.70;99.90;;;;;;5032525;28;20636;-75
2021/10/31 01:31:59;;;;;;;21.33;10.30;;;9.70;99.90;;;;;;5028949;28;20039;-75
2021/10/31 01:34:41;;;;;;;20.05;11.50;;;9.60;99.90;;;;;;5031346;28;20069;-75
2021/10/31 01:37:25;;;;;;;18.52;11.25;;;9.60;99.90;;;;;;5032906;28;20060;-76
2021/10/31 01:40:17;;;;;;;16.55;11.80;;;9.50;99.90;;;;;;5020518;28;20032;-75
2021/10/31 01:42:57;;;;;;;20.85;12.77;;;9.60;99.90;;;;;;5034387;28;20037;-75
2021/10/31 01:45:50;;;;;;;19.63;12.45;;;9.60;99.90;;;;;;5033708;28;20029;-76
2021/10/31 01:48:33;;;;;;;13.75;12.05;;;9.50;99.90;;;;;;5031589;28;20053;-75
2021/10/31 01:51:02;;;;;;;20.77;13.43;;;9.50;99.90;;;;;;5032497;28;20032;-75
2021/10/31 01:53:52;;;;;;;23.35;12.85;;;9.50;99.90;;;;;;5032492;28;20029;-75
2021/10/31 01:56:20;;;;;;;20.05;12.13;;;9.50;99.90;;;;;;5032274;28;20484;-74
2021/10/31 01:59:03;;;;;;;20.17;11.95;;;9.50;99.90;;;;;;5032583;28;20037;-75
2021/10/31 02:01:31;;;;;;;19.38;12.32;;;9.40;99.90;;;;;;5031082;28;20098;-74
2021/10/31 02:04:02;;;;;;;18.38;13.65;;;9.40;99.90;;;;;;5032152;28;20018;-75
2021/10/31 02:06:30;;;;;;;20.55;13.40;;;9.40;99.90;;;;;;5031659;28;20033;-75
2021/10/31 02:08:57;;;;;;;18.42;12.38;;;9.40;99.90;;;;;;5031083;28;20485;-75
2021/10/31 02:11:23;;;;;;;16.83;13.38;;;9.50;99.90;;;;;;5031342;28;20075;-75
2021/10/31 02:13:52;;;;;;;21.48;13.18;;;9.40;99.90;;;;;;5032070;28;20057;-76
2021/10/31 02:16:18;;;;;;;19.45;12.30;;;9.40;99.90;;;;;;5031444;28;20045;-74
2021/10/31 02:18:48;;;;;;;20.55;13.55;;;9.40;99.90;;;;;;5032080;28;20351;-76
2021/10/31 02:21:20;;;;;;;19.88;12.40;;;9.40;99.90;;;;;;5032389;28;20124;-74
2021/10/31 02:23:47;;;;;;;17.25;12.68;;;9.50;99.90;;;;;;5030814;28;20104;-74
2021/10/31 02:26:14;;;;;;;16.75;12.45;;;9.50;99.90;;;;;;5032383;28;20080;-74
2021/10/31 02:28:39;;;;;;;20.92;12.80;;;9.40;99.90;;;;;;5031714;28;20038;-75
2021/10/31 02:31:05;;;;;;;19.73;11.00;;;9.50;99.90;;;;;;5031102;28;20470;-75
2021/10/31 02:33:31;;;;;;;20.60;12.43;;;9.50;99.90;;;;;;5031485;28;20032;-75
2021/10/31 02:35:58;;;;;;;18.05;13.48;;;9.50;99.90;;;;;;5031452;28;20053;-75
2021/10/31 02:38:24;;;;;;;24.60;13.55;;;9.50;99.90;;;;;;5031550;28;20051;-75
2021/10/31 02:40:50;;;;;;;16.67;12.50;;;9.50;99.90;;;;;;5031772;28;20116;-75
2021/10/31 02:43:16;;;;;;;23.20;11.80;;;9.50;99.90;;;;;;5031772;28;20021;-75
2021/10/31 02:45:41;;;;;;;16.38;12.15;;;9.50;99.90;;;;;;5030768;28;20022;-75
2021/10/31 02:48:11;;;;;;;29.25;13.43;;;9.50;99.90;;;;;;5031385;28;20079;-74
2021/10/31 02:50:39;;;;;;;18.67;12.05;;;9.50;99.90;;;;;;5032199;28;20017;-74
2021/10/31 02:53:51;;;;;;;17.77;11.63;;;9.50;99.90;;;;;;5033412;28;20068;-74
2021/10/31 02:56:40;;;;;;;20.75;12.13;;;9.50;99.90;;;;;;5027184;28;20045;-75
2021/10/31 02:59:20;;;;;;;23.48;12.00;;;9.50;99.90;;;;;;5031055;28;20035;-75
2021/10/31 03:01:47;;;;;;;11.57;10.48;;;9.40;99.90;;;;;;5031652;28;20040;-75
2021/10/31 03:04:16;;;;;;;16.30;11.93;;;9.40;99.90;;;;;;5032722;28;20033;-78
2021/10/31 03:06:43;;;;;;;15.18;11.02;;;9.40;99.90;;;;;;5030620;28;20453;-76
2021/10/31 03:09:09;;;;;;;16.60;11.95;;;9.40;99.90;;;;;;5031850;28;20079;-75
2021/10/31 03:11:34;;;;;;;15.77;12.13;;;9.40;99.90;;;;;;5030941;28;20025;-75
2021/10/31 03:14:00;;;;;;;15.98;11.50;;;9.40;99.90;;;;;;5030850;28;20022;-75
2021/10/31 03:16:25;;;;;;;20.45;11.00;;;9.40;99.90;;;;;;5031059;28;20083;-75
2021/10/31 03:18:51;;;;;;;17.60;11.95;;;9.40;99.90;;;;;;5030628;28;20025;-75
2021/10/31 03:21:17;;;;;;;17.13;11.32;;;9.30;99.90;;;;;;5031363;28;20037;-75
2021/10/31 03:23:42;;;;;;;15.07;10.82;;;9.30;99.90;;;;;;5031387;28;20021;-75
2021/10/31 03:26:08;;;;;;;18.60;12.50;;;9.30;99.90;;;;;;5030906;28;20033;-75
2021/10/31 03:28:33;;;;;;;19.02;11.43;;;9.30;99.90;;;;;;5031739;28;20013;-76
2021/10/31 03:31:00;;;;;;;15.50;10.93;;;9.30;99.90;;;;;;5033773;28;20052;-75
2021/10/31 03:33:25;;;;;;;15.80;11.70;;;9.30;99.90;;;;;;5033565;28;20104;-75
2021/10/31 03:35:51;;;;;;;17.83;11.50;;;9.30;99.90;;;;;;5035337;28;20120;-75
2021/10/31 03:38:18;;;;;;;18.10;11.98;;;9.20;99.90;;;;;;5035007;28;20036;-75
2021/10/31 03:40:44;;;;;;;25.67;12.25;;;9.30;99.90;;;;;;5033510;28;20028;-75
2021/10/31 03:43:10;;;;;;;17.98;12.65;;;9.30;99.90;;;;;;5035301;28;20036;-76
2021/10/31 03:45:38;;;;;;;17.92;12.13;;;9.30;99.90;;;;;;5034509;28;20567;-75
2021/10/31 03:48:04;;;;;;;18.38;12.35;;;9.30;99.90;;;;;;5033778;28;20036;-75
2021/10/31 03:50:31;;;;;;;18.90;11.80;;;9.20;99.90;;;;;;5034189;28;20029;-74
2021/10/31 03:52:57;;;;;;;17.45;12.25;;;9.30;99.90;;;;;;5034461;28;20064;-73
2021/10/31 03:55:23;;;;;;;19.52;11.45;;;9.20;99.90;;;;;;5033443;28;20041;-74
2021/10/31 03:57:49;;;;;;;16.98;11.43;;;9.20;99.90;;;;;;5034789;28;20037;-75
2021/10/31 04:00:15;;;;;;;21.05;12.23;;;9.20;99.90;;;;;;5037261;28;20025;-74
2021/10/31 04:02:41;;;;;;;14.95;11.60;;;9.20;99.90;;;;;;5038755;28;20021;-74
2021/10/31 04:05:08;;;;;;;16.85;11.07;;;9.10;99.90;;;;;;5041876;28;20041;-75
2021/10/31 04:07:33;;;;;;;19.58;13.00;;;9.10;99.90;;;;;;5040232;28;20028;-75
2021/10/31 04:09:59;;;;;;;15.18;11.45;;;9.10;99.90;;;;;;5033292;28;20108;-75
2021/10/31 04:12:25;;;;;;;17.23;11.55;;;9.10;99.90;;;;;;5034082;28;20026;-75
2021/10/31 04:14:50;;;;;;;16.15;12.35;;;9.10;99.90;;;;;;5033887;28;20009;-75
2021/10/31 04:17:20;;;;;;;14.52;10.95;;;9.10;99.90;;;;;;5034252;28;20041;-74
2021/10/31 04:19:45;;;;;;;19.25;11.82;;;9.10;99.90;;;;;;5042542;28;20116;-74
2021/10/31 04:22:11;;;;;;;14.55;10.38;;;9.10;99.90;;;;;;5034697;28;20103;-75
2021/10/31 04:24:36;;;;;;;15.20;11.43;;;9.10;99.90;;;;;;5033891;28;20026;-75
2021/10/31 04:27:03;;;;;;;14.45;10.43;;;9.10;99.90;;;;;;5033680;28;20108;-75
2021/10/31 04:29:29;;;;;;;15.13;11.35;;;9.00;99.90;;;;;;5033222;28;20069;-74
2021/10/31 04:31:55;;;;;;;19.58;12.35;;;9.00;99.90;;;;;;5033697;28;20060;-74
2021/10/31 04:34:24;;;;;;;16.92;11.15;;;9.00;99.90;;;;;;5033154;28;20052;-76
2021/10/31 04:36:51;;;;;;;15.88;11.10;;;9.00;99.90;;;;;;5032943;28;20047;-75
2021/10/31 04:39:17;;;;;;;14.90;10.57;;;9.00;99.90;;;;;;5033763;28;20496;-75
2021/10/31 04:41:45;;;;;;;15.27;11.85;;;8.90;99.90;;;;;;5032622;28;20099;-76
2021/10/31 04:44:10;;;;;;;15.32;11.93;;;9.00;99.90;;;;;;5032734;28;20025;-75
2021/10/31 04:46:36;;;;;;;18.23;10.77;;;8.90;99.90;;;;;;5033378;28;20099;-74
2021/10/31 04:49:02;;;;;;;18.92;11.13;;;8.90;99.90;;;;;;5033206;28;20029;-74
2021/10/31 04:51:27;;;;;;;22.27;12.45;;;8.90;99.90;;;;;;5032488;28;20477;-75
2021/10/31 04:53:53;;;;;;;17.98;11.75;;;8.90;99.90;;;;;;5033871;28;20505;-76
2021/10/31 04:56:22;;;;;;;16.98;11.52;;;8.90;99.90;;;;;;5033060;28;20042;-74
2021/10/31 04:58:52;;;;;;;19.00;12.20;;;8.90;99.90;;;;;;5032878;28;20040;-76
2021/10/31 05:01:19;;;;;;;15.82;11.90;;;8.90;99.90;;;;;;5033383;28;20060;-73
2021/10/31 05:03:45;;;;;;;21.77;11.40;;;8.90;99.90;;;;;;5033416;28;20428;-75
2021/10/31 05:06:11;;;;;;;18.50;11.48;;;8.80;99.90;;;;;;5032180;28;20168;-74
2021/10/31 05:08:37;;;;;;;22.80;12.32;;;8.80;99.90;;;;;;5032982;28;20021;-75
2021/10/31 05:11:03;;;;;;;20.05;11.70;;;8.80;99.90;;;;;;5032956;28;20364;-76
2021/10/31 05:13:29;;;;;;;14.20;11.48;;;8.80;99.90;;;;;;5032108;28;20040;-75
2021/10/31 05:15:55;;;;;;;16.92;11.20;;;8.90;99.90;;;;;;5032849;28;20041;-76
2021/10/31 05:18:20;;;;;;;17.40;11.32;;;8.90;99.90;;;;;;5032018;28;20036;-76
2021/10/31 05:20:46;;;;;;;18.27;11.45;;;9.40;99.90;;;;;;5032406;28;20033;-76
2021/10/31 05:23:11;;;;;;;24.17;12.35;;;8.90;99.90;;;;;;5032840;28;20051;-76
2021/10/31 05:25:37;;;;;;;21.13;13.90;;;8.90;99.90;;;;;;5032676;28;20017;-75
2021/10/31 05:28:03;;;;;;;17.90;13.32;;;8.90;99.90;;;;;;5034061;28;20068;-76
2021/10/31 05:30:28;;;;;;;15.95;11.13;;;8.90;99.90;;;;;;5032549;28;20025;-76
2021/10/31 05:32:54;;;;;;;15.68;11.02;;;8.80;99.90;;;;;;5032197;28;20036;-75
2021/10/31 05:35:19;;;;;;;20.45;13.00;;;8.80;99.90;;;;;;5032407;28;20076;-75
2021/10/31 05:37:46;;;;;;;16.90;12.13;;;8.80;99.90;;;;;;5033153;28;20022;-75
2021/10/31 05:40:14;;;;;;;17.40;12.13;;;8.70;99.90;;;;;;5031602;28;20489;-75
2021/10/31 05:42:41;;;;;;;19.65;12.55;;;8.80;99.90;;;;;;5032017;28;20451;-75
2021/10/31 05:45:08;;;;;;;19.15;12.68;;;8.70;99.90;;;;;;5032322;28;20039;-74
2021/10/31 05:47:38;;;;;;;18.92;12.93;;;8.70;99.90;;;;;;5031171;28;20026;-76
2021/10/31 05:50:06;;;;;;;19.30;13.10;;;8.80;99.90;;;;;;5032185;28;20021;-75
2021/10/31 05:52:32;;;;;;;21.58;12.50;;;8.70;99.90;;;;;;5031590;28;20029;-75
2021/10/31 05:54:59;;;;;;;16.98;11.88;;;8.80;99.90;;;;;;5031436;28;20480;-75
2021/10/31 05:57:26;;;;;;;21.05;14.38;;;8.70;99.90;;;;;;5031662;28;20492;-76
2021/10/31 05:59:52;;;;;;;17.02;12.05;;;8.70;99.90;;;;;;5032033;28;20495;-75
2021/10/31 06:02:17;;;;;;;18.02;12.65;;;8.70;99.90;;;;;;5030139;28;20132;-74
2021/10/31 06:04:45;;;;;;;26.35;12.65;;;8.70;99.90;;;;;;5031108;28;20029;-74
2021/10/31 06:07:11;;;;;;;20.42;13.35;;;8.70;99.90;;;;;;5030736;28;20029;-75
2021/10/31 06:09:36;;;;;;;16.52;11.82;;;8.80;99.90;;;;;;5029561;28;20021;-75
2021/10/31 06:12:05;;;;;;;23.45;12.35;;;8.70;99.90;;;;;;5030426;28;20098;-75
2021/10/31 06:14:32;;;;;;;19.67;11.75;;;8.70;99.90;;;;;;5023952;28;20017;-74
2021/10/31 06:17:01;;;;;;;18.95;12.45;;;8.70;99.90;;;;;;5019214;28;20042;-75
2021/10/31 06:19:27;;;;;;;20.80;12.60;;;8.70;99.90;;;;;;5030468;28;20384;-74
2021/10/31 06:21:52;;;;;;;21.45;12.48;;;8.70;99.90;;;;;;5021758;28;20026;-74
2021/10/31 06:24:18;;;;;;;21.55;12.65;;;8.70;99.90;;;;;;5012370;28;20110;-73
2021/10/31 06:26:44;;;;;;;26.30;14.90;;;8.70;99.90;;;;;;5022749;28;20021;-74
2021/10/31 06:29:12;;;;;;;20.05;12.35;;;8.70;99.90;;;;;;5022886;28;20477;-74
2021/10/31 06:31:38;;;;;;;19.88;12.65;;;8.80;99.90;;;;;;5018533;28;20018;-75
2021/10/31 06:34:04;;;;;;;23.65;13.07;;;8.70;99.90;;;;;;5020940;28;20415;-74
2021/10/31 06:36:29;;;;;;;16.25;12.60;;;8.70;99.90;;;;;;5020823;28;20122;-74
2021/10/31 06:38:55;;;;;;;19.52;12.02;;;8.80;99.90;;;;;;5016656;28;20101;-74
2021/10/31 06:41:24;;;;;;;19.75;12.63;;;8.70;99.90;;;;;;5027521;28;20359;-74
2021/10/31 06:43:50;;;;;;;17.35;12.63;;;8.70;99.90;;;;;;5019388;28;20097;-74
2021/10/31 06:46:15;;;;;;;19.52;12.52;;;8.80;99.90;;;;;;5021859;28;20184;-74
2021/10/31 06:48:41;;;;;;;19.85;12.18;;;8.80;99.90;;;;;;5022391;28;20062;-74
2021/10/31 06:51:06;;;;;;;25.77;13.05;;;8.80;99.90;;;;;;5021799;28;20041;-74
2021/10/31 06:53:32;;;;;;;22.05;12.63;;;8.80;99.90;;;;;;5021461;28;20318;-75
2021/10/31 06:55:58;;;;;;;20.67;12.27;;;8.90;99.90;;;;;;5029420;28;20034;-74
2021/10/31 06:58:23;;;;;;;16.08;12.23;;;8.90;99.90;;;;;;5018097;28;20100;-75
2021/10/31 07:00:49;;;;;;;28.75;12.63;;;8.80;99.90;;;;;;5015016;28;20053;-75
2021/10/31 07:03:14;;;;;;;15.20;11.77;;;8.90;99.90;;;;;;5028941;28;20067;-74
2021/10/31 07:05:40;;;;;;;12.52;10.90;;;8.80;99.90;;;;;;5023052;28;20021;-75
2021/10/31 07:08:06;;;;;;;22.02;13.25;;;8.80;99.90;;;;;;5025006;28;20030;-75
2021/10/31 07:10:31;;;;;;;18.63;12.32;;;8.90;99.90;;;;;;5026992;28;20527;-75
2021/10/31 07:12:57;;;;;;;17.30;11.35;;;9.00;99.90;;;;;;5028131;28;20058;-74
2021/10/31 07:15:22;;;;;;;18.73;12.93;;;8.90;99.90;;;;;;5027060;28;20034;-75
2021/10/31 07:17:49;;;;;;;21.25;13.90;;;9.00;99.90;;;;;;5029587;28;20025;-75
2021/10/31 07:20:14;;;;;;;21.30;13.05;;;9.10;99.90;;;;;;5028917;28;20029;-75
2021/10/31 07:22:41;;;;;;;19.25;13.25;;;9.10;99.90;;;;;;5022017;28;20076;-75
2021/10/31 07:25:08;;;;;;;20.13;13.93;;;9.10;99.90;;;;;;5031846;28;20105;-74
2021/10/31 07:27:34;;;;;;;19.38;13.32;;;9.20;99.90;;;;;;5026061;28;20021;-74
2021/10/31 07:30:00;;;;;;;21.52;13.55;;;9.20;99.90;;;;;;5027201;28;20112;-74
2021/10/31 07:32:25;;;;;;;19.52;13.55;;;9.30;99.90;;;;;;5026712;28;20095;-74
2021/10/31 07:34:51;;;;;;;19.42;13.30;;;9.30;99.90;;;;;;5027101;28;20069;-74
2021/10/31 07:37:17;;;;;;;20.35;13.45;;;9.40;99.90;;;;;;5028028;28;20041;-74
2021/10/31 07:39:44;;;;;;;18.48;13.27;;;9.40;99.90;;;;;;5022838;28;20124;-75
2021/10/31 07:42:09;;;;;;;19.98;13.55;;;9.40;99.90;;;;;;5022227;28;20043;-76
2021/10/31 07:44:35;;;;;;;18.90;13.32;;;9.50;99.90;;;;;;5019602;28;20120;-75
2021/10/31 07:47:01;;;;;;;19.38;13.27;;;9.50;99.90;;;;;;5022051;28;20478;-75
2021/10/31 07:49:29;;;;;;;21.85;13.93;;;9.60;99.90;;;;;;5029160;28;20030;-75
2021/10/31 07:51:55;;;;;;;15.55;12.55;;;9.70;99.90;;;;;;5020891;28;20022;-75
2021/10/31 07:54:25;;;;;;;19.65;12.55;;;9.70;99.90;;;;;;5024482;28;20026;-75
2021/10/31 07:56:55;;;;;;;17.30;12.73;;;9.80;99.90;;;;;;5024374;28;20140;-75
2021/10/31 07:59:21;;;;;;;17.00;11.98;;;9.90;99.90;;;;;;5025358;28;20022;-74
2021/10/31 08:01:46;;;;;;;20.05;12.07;;;9.90;99.90;;;;;;5027917;28;20079;-74
2021/10/31 08:04:12;;;;;;;17.00;12.63;;;9.90;99.90;;;;;;5025057;28;20037;-75
2021/10/31 08:06:38;;;;;;;19.65;12.13;;;10.00;99.90;;;;;;5025139;28;20482;-76
2021/10/31 08:09:04;;;;;;;14.10;11.43;;;10.10;99.90;;;;;;5027833;28;20136;-74
2021/10/31 08:11:29;;;;;;;12.77;11.18;;;10.20;99.90;;;;;;5026945;28;20373;-74
2021/10/31 08:13:55;;;;;;;15.50;12.30;;;10.20;99.90;;;;;;5025289;28;20026;-74
2021/10/31 08:16:22;;;;;;;13.88;11.00;;;10.30;99.90;;;;;;5024040;28;20061;-74
2021/10/31 08:18:48;;;;;;;11.98;10.38;;;10.40;99.90;;;;;;5026587;28;20053;-77
2021/10/31 08:21:14;;;;;;;12.65;10.15;;;10.50;99.90;;;;;;5027897;28;20465;-75
2021/10/31 08:23:39;;;;;;;11.27;9.20;;;10.60;99.90;;;;;;5024610;28;20477;-77
2021/10/31 08:26:06;;;;;;;13.30;10.52;;;10.60;99.90;;;;;;5026959;28;20355;-77
2021/10/31 08:28:34;;;;;;;11.60;10.25;;;10.60;99.90;;;;;;5025308;28;20025;-76
2021/10/31 08:31:01;;;;;;;13.57;10.73;;;10.70;99.90;;;;;;5027770;28;20029;-76
2021/10/31 08:33:33;;;;;;;11.55;9.10;;;10.80;99.90;;;;;;5024349;28;20022;-77
2021/10/31 08:35:59;;;;;;;10.30;9.25;;;10.80;99.90;;;;;;5024492;28;20052;-77
2021/10/31 08:38:25;;;;;;;11.82;9.13;;;10.90;99.90;;;;;;5025470;28;20021;-76
2021/10/31 08:40:52;;;;;;;10.60;8.80;;;10.90;99.90;;;;;;5027578;28;20025;-79
2021/10/31 08:43:19;;;;;;;10.77;9.38;;;11.00;99.90;;;;;;5025052;28;20026;-77
2021/10/31 08:45:45;;;;;;;10.52;8.75;;;11.00;99.90;;;;;;5027611;28;20464;-79
2021/10/31 08:48:12;;;;;;;9.18;8.27;;;11.20;99.90;;;;;;5020521;28;20021;-76
2021/10/31 08:50:38;;;;;;;9.27;8.38;;;11.20;99.90;;;;;;5024986;28;20036;-76
2021/10/31 08:53:11;;;;;;;10.48;8.55;;;11.90;99.90;;;;;;5019143;28;20101;-78
2021/10/31 08:55:39;;;;;;;9.73;7.97;;;11.30;99.90;;;;;;5030597;28;20095;-76
2021/10/31 08:58:08;;;;;;;9.63;8.68;;;11.40;99.90;;;;;;5026667;28;20026;-76
2021/10/31 09:00:34;;;;;;;9.75;8.40;;;11.40;99.90;;;;;;5022424;28;20022;-77
2021/10/31 09:03:00;;;;;;;8.75;7.50;;;11.40;99.90;;;;;;5026462;28;20029;-76
2021/10/31 09:05:27;;;;;;;9.80;8.65;;;11.50;99.90;;;;;;5018993;28;20026;-76
2021/10/31 09:07:52;;;;;;;9.75;8.60;;;11.60;99.90;;;;;;5020768;28;20030;-79
2021/10/31 09:10:18;;;;;;;13.07;7.65;;;11.70;99.90;;;;;;5019770;28;20434;-77
2021/10/31 09:12:44;;;;;;;11.15;7.75;;;11.80;99.90;;;;;;5029514;28;20040;-77
2021/10/31 09:15:09;;;;;;;8.90;8.07;;;11.80;99.90;;;;;;5022362;28;20025;-77
2021/10/31 09:17:35;;;;;;;10.35;7.97;;;11.90;99.90;;;;;;5025174;28;20040;-77
2021/10/31 09:20:01;;;;;;;7.80;7.03;;;12.00;99.90;;;;;;5028088;28;20021;-77
2021/10/31 09:22:26;;;;;;;8.38;7.35;;;12.10;99.90;;;;;;5023833;28;20428;-77
2021/10/31 09:24:52;;;;;;;8.20;7.22;;;12.20;99.90;;;;;;5029633;28;20441;-75
2021/10/31 09:27:20;;;;;;;7.20;6.40;;;12.30;99.90;;;;;;5024497;28;20405;-75
2021/10/31 09:29:46;;;;;;;7.03;6.32;;;12.30;99.90;;;;;;5018891;28;20030;-74
2021/10/31 09:32:11;;;;;;;6.97;6.28;;;12.30;99.90;;;;;;5030127;28;20026;-79
2021/10/31 09:34:37;;;;;;;9.43;6.65;;;12.30;99.90;;;;;;5024212;28;20529;-78
2021/10/31 09:37:04;;;;;;;6.70;6.10;;;12.40;99.90;;;;;;5022806;28;20056;-83
2021/10/31 09:39:29;;;;;;;7.22;6.00;;;12.40;99.90;;;;;;5024580;28;20181;-77
2021/10/31 09:41:55;;;;;;;9.02;6.22;;;12.40;99.90;;;;;;5024460;28;20129;-75
2021/10/31 09:44:29;;;;;;;7.88;5.80;;;12.40;99.90;;;;;;5017683;28;20028;-78
2021/10/31 09:46:55;;;;;;;12.25;5.90;;;12.40;99.90;;;;;;5027412;28;20080;-76
2021/10/31 09:49:22;;;;;;;6.20;5.53;;;12.50;99.90;;;;;;5027603;28;20014;-76
2021/10/31 09:51:50;;;;;;;6.10;4.72;;;12.50;99.90;;;;;;5021423;28;20033;-77
2021/10/31 09:54:16;;;;;;;6.93;5.65;;;12.60;99.90;;;;;;5021813;28;20490;-75
2021/10/31 09:56:43;;;;;;;8.43;4.90;;;12.60;99.90;;;;;;5022587;28;20042;-78
2021/10/31 09:59:15;;;;;;;7.05;5.00;;;12.70;99.90;;;;;;5022588;28;20037;-77
2021/10/31 10:04:30;;;;;;;4.90;4.50;;;12.80;99.90;;;;;;5025301;28;20021;-76
2021/10/31 10:06:57;;;;;;;4.75;4.35;;;12.90;99.90;;;;;;5023473;28;20473;-76
2021/10/31 10:09:23;;;;;;;8.23;4.00;;;13.00;99.90;;;;;;5026691;28;20025;-77
2021/10/31 10:11:50;;;;;;;5.22;4.20;;;13.10;99.90;;;;;;5025108;28;20029;-76
2021/10/31 10:14:19;;;;;;;5.65;4.40;;;13.10;99.90;;;;;;5014560;28;20036;-76
2021/10/31 10:16:46;;;;;;;4.47;4.05;;;13.20;99.90;;;;;;5027387;28;20059;-77
2021/10/31 10:19:30;;;;;;;5.50;3.60;;;13.20;99.90;;;;;;5024391;28;20105;-76
2021/10/31 10:22:09;;;;;;;3.80;3.50;;;13.30;99.90;;;;;;5026410;28;20086;-76
2021/10/31 10:24:38;;;;;;;5.20;3.13;;;13.30;99.90;;;;;;5017454;28;20025;-77
2021/10/31 10:27:06;;;;;;;7.38;3.85;;;13.30;99.90;;;;;;5029078;28;20026;-78
2021/10/31 10:29:38;;;;;;;6.72;3.08;;;13.30;99.90;;;;;;5027908;28;20026;-77
2021/10/31 10:32:06;;;;;;;3.35;3.03;;;13.30;99.90;;;;;;5036525;28;20091;-77
2021/10/31 10:34:56;;;;;;;3.83;3.38;;;13.30;99.90;;;;;;5022537;28;20085;-76
2021/10/31 10:37:27;;;;;;;7.03;3.63;;;13.40;99.90;;;;;;5024795;28;20068;-77
2021/10/31 10:39:56;;;;;;;3.47;3.17;;;13.40;99.90;;;;;;5011027;28;20026;-78
2021/10/31 10:42:27;;;;;;;5.50;3.08;;;13.40;99.90;;;;;;5022973;28;20420;-77
2021/10/31 10:45:03;;;;;;;2.90;2.70;;;13.40;99.90;;;;;;5030644;28;20083;-77
2021/10/31 10:47:29;;;;;;;4.22;2.97;;;13.50;99.90;;;;;;5021264;28;20025;-78
2021/10/31 10:49:58;;;;;;;3.85;2.35;;;13.40;99.90;;;;;;5021433;28;20018;-77
2021/10/31 10:52:29;;;;;;;3.58;2.60;;;13.40;99.90;;;;;;5021816;28;20034;-77
2021/10/31 10:55:07;;;;;;;2.80;2.60;;;13.40;99.90;;;;;;5021813;28;20048;-77
2021/10/31 10:57:36;;;;;;;3.17;2.70;;;13.40;99.90;;;;;;5019680;28;20042;-76
2021/10/31 11:00:07;;;;;;;2.95;2.67;;;13.40;99.90;;;;;;5028786;28;20047;-77
2021/10/31 11:02:32;;;;;;;;;;;13.40;99.90;;;;;;5028694;28;20386;-77
2021/10/31 11:05:09;;;;;;;5.00;2.17;;;13.40;99.90;;;;;;5019321;28;20004;-77
2021/10/31 11:07:39;;;;;;;3.67;2.30;;;13.40;99.90;;;;;;5027602;28;20029;-75
2021/10/31 11:10:14;;;;;;;3.28;2.15;;;13.40;99.90;;;;;;5028418;28;20029;-76
2021/10/31 11:12:41;;;;;;;7.07;2.35;;;13.40;99.90;;;;;;5029108;28;20083;-75
2021/10/31 11:15:11;;;;;;;1.95;1.85;;;13.40;99.90;;;;;;5023751;28;20038;-76
2021/10/31 11:17:37;;;;;;;;;;;13.40;99.90;;;;;;5026481;28;20084;-76
2021/10/31 11:20:06;;;;;;;1.90;1.70;;;13.40;99.90;;;;;;5026728;28;19920;-76
2021/10/31 11:22:32;;;;;;;2.42;1.90;;;13.40;99.90;;;;;;5025130;28;20045;-76
2021/10/31 11:25:00;;;;;;;1.85;1.40;;;13.40;99.90;;;;;;5029759;28;20029;-75
2021/10/31 11:27:27;;;;;;;2.03;1.55;;;13.30;99.90;;;;;;5029098;28;20049;-76
2021/10/31 11:29:56;;;;;;;2.85;1.45;;;13.30;99.90;;;;;;5027718;28;20029;-77
2021/10/31 11:32:24;;;;;;;2.05;1.40;;;13.20;99.90;;;;;;5027207;28;20481;-76
2021/10/31 11:34:52;;;;;;;1.63;1.52;;;13.20;99.90;;;;;;5017879;28;20050;-78
2021/10/31 11:37:22;;;;;;;1.80;1.67;;;13.20;99.90;;;;;;5018840;28;20033;-77
2021/10/31 11:39:53;;;;;;;2.23;1.83;;;13.10;99.90;;;;;;5028723;28;20017;-76
2021/10/31 11:42:19;;;;;;;2.13;1.42;;;13.10;99.90;;;;;;5025877;28;20025;-76
2021/10/31 11:45:03;;;;;;;1.73;1.63;;;13.10;99.90;;;;;;5029432;28;20489;-76
2021/10/31 11:47:30;;;;;;;2.15;1.70;;;13.10;99.90;;;;;;5018381;28;20037;-76
2021/10/31 11:50:06;;;;;;;4.47;2.50;;;13.10;99.90;;;;;;5019201;28;20144;-75
2021/10/31 11:52:56;;;;;;;2.05;1.70;;;13.20;99.90;;;;;;5022582;28;20104;-76
2021/10/31 11:55:25;;;;;;;2.35;1.58;;;13.10;99.90;;;;;;5018670;28;20033;-77
2021/10/31 11:57:59;;;;;;;1.80;1.70;;;13.10;99.90;;;;;;5025928;28;20131;-76
2021/10/31 12:00:25;;;;;;;2.70;1.52;;;13.10;99.90;;;;;;5023630;28;20052;-77
2021/10/31 12:02:54;;;;;;;3.25;1.08;;;13.10;99.90;;;;;;5023206;28;20029;-76
2021/10/31 12:05:39;;;;;;;2.45;1.40;;;13.00;99.90;;;;;;5027070;28;20037;-76
2021/10/31 12:08:54;;;;;;;3.80;1.80;;;13.10;99.90;;;;;;5019126;28;20033;-77
2021/10/31 12:11:40;;;;;;;2.83;1.38;;;13.10;99.90;;;;;;5019297;28;20030;-77
2021/10/31 12:14:06;;;;;;;1.45;1.35;;;13.10;99.90;;;;;;5022666;28;20441;-77
2021/10/31 12:16:55;;;;;;;2.72;1.52;;;13.10;99.90;;;;;;5028310;28;20109;-76
2021/10/31 12:19:36;;;;;;;3.00;1.83;;;13.20;99.90;;;;;;5023762;28;20526;-75
2021/10/31 12:22:21;;;;;;;3.85;1.35;;;13.20;99.90;;;;;;5024712;28;20394;-76
2021/10/31 12:24:56;;;;;;;1.75;1.65;;;13.30;99.90;;;;;;5025109;28;20048;-77
2021/10/31 12:27:48;;;;;;;2.33;1.50;;;13.40;99.90;;;;;;5022488;28;20029;-75
2021/10/31 12:30:15;;;;;;;1.50;1.40;;;13.50;99.90;;;;;;5022550;28;20057;-77
2021/10/31 12:32:43;;;;;;;2.83;1.77;;;13.60;99.90;;;;;;5024718;28;20087;-77
2021/10/31 12:35:28;;;;;;;3.15;1.90;;;13.60;99.90;;;;;;5024843;28;20429;-78
2021/10/31 12:38:01;;;;;;;1.90;1.40;;;13.60;99.90;;;;;;5023434;28;20040;-76
2021/10/31 12:40:27;;;;;;;3.70;1.20;;;13.60;99.90;;;;;;5026075;28;20025;-76
2021/10/31 12:42:58;;;;;;;1.38;1.27;;;13.60;99.90;;;;;;5028300;28;20047;-76
2021/10/31 12:45:29;;;;;;;2.80;1.67;;;13.70;99.90;;;;;;5016502;28;20021;-78
2021/10/31 12:48:06;;;;;;;1.50;1.30;;;13.70;99.90;;;;;;5025941;28;20069;-76
2021/10/31 12:50:33;;;;;;;1.60;1.50;;;13.70;99.90;;;;;;5025129;28;20502;-77
2021/10/31 12:53:09;;;;;;;2.85;1.50;;;13.70;99.90;;;;;;5022698;28;20144;-77